sensor_id;sensor_type;location;lat;lon;timestamp;pressure;altitude;pressure_sealevel;temperature;humidity
84387;BME280;74580;47.078;15.446;2024-03-08T00:02:38;97710.59;;;22.81;32.33
84387;BME280;74580;47.078;15.446;2024-03-08T00:05:04;97711.38;;;22.82;32.28
84387;BME280;74580;47.078;15.446;2024-03-08T00:07:30;97714.47;;;22.80;32.55
84387;BME280;74580;47.078;15.446;2024-03-08T00:09:55;97709.81;;;22.81;32.33
84387;BME280;74580;47.078;15.446;2024-03-08T00:12:21;97712.88;;;22.79;32.34
84387;BME280;74580;47.078;15.446;2024-03-08T00:14:46;97707.44;;;22.79;32.43
84387;BME280;74580;47.078;15.446;2024-03-08T00:17:11;97717.97;;;22.81;32.59
84387;BME280;74580;47.078;15.446;2024-03-08T00:19:37;97716.81;;;22.82;32.75
84387;BME280;74580;47.078;15.446;2024-03-08T00:22:02;97712.88;;;22.79;32.54
84387;BME280;74580;47.078;15.446;2024-03-08T00:24:28;97712.13;;;22.79;32.50
84387;BME280;74580;47.078;15.446;2024-03-08T00:26:54;97714.84;;;22.79;32.46
84387;BME280;74580;47.078;15.446;2024-03-08T00:29:19;97719.13;;;22.80;32.52
84387;BME280;74580;47.078;15.446;2024-03-08T00:31:45;97705.50;;;22.80;32.46
84387;BME280;74580;47.078;15.446;2024-03-08T00:34:10;97709.03;;;22.80;32.79
84387;BME280;74580;47.078;15.446;2024-03-08T00:36:37;97707.44;;;22.79;32.46
84387;BME280;74580;47.078;15.446;2024-03-08T00:39:02;97701.63;;;22.81;32.59
84387;BME280;74580;47.078;15.446;2024-03-08T00:41:31;97703.94;;;22.79;32.50
84387;BME280;74580;47.078;15.446;2024-03-08T00:43:56;97710.97;;;22.80;32.73
84387;BME280;74580;47.078;15.446;2024-03-08T00:46:22;97704.34;;;22.81;32.46
84387;BME280;74580;47.078;15.446;2024-03-08T00:48:47;97700.84;;;22.80;32.34
84387;BME280;74580;47.078;15.446;2024-03-08T00:51:13;97698.13;;;22.80;32.50
84387;BME280;74580;47.078;15.446;2024-03-08T00:53:40;97698.13;;;22.80;32.42
84387;BME280;74580;47.078;15.446;2024-03-08T00:56:07;97697.34;;;22.80;32.41
84387;BME280;74580;47.078;15.446;2024-03-08T00:58:36;97688.31;;;22.76;32.42
84387;BME280;74580;47.078;15.446;2024-03-08T01:01:02;97681.34;;;22.78;32.49
84387;BME280;74580;47.078;15.446;2024-03-08T01:03:27;97685.63;;;22.79;32.73
84387;BME280;74580;47.078;15.446;2024-03-08T01:05:53;97684.88;;;22.79;32.63
84387;BME280;74580;47.078;15.446;2024-03-08T01:08:19;97689.53;;;22.78;32.47
84387;BME280;74580;47.078;15.446;2024-03-08T01:10:44;97681.72;;;22.77;32.37
84387;BME280;74580;47.078;15.446;2024-03-08T01:13:09;97684.88;;;22.79;32.45
84387;BME280;74580;47.078;15.446;2024-03-08T01:15:35;97684.06;;;22.78;32.65
84387;BME280;74580;47.078;15.446;2024-03-08T01:18:00;97681.72;;;22.77;32.51
84387;BME280;74580;47.078;15.446;2024-03-08T01:20:26;97689.53;;;22.78;32.29
84387;BME280;74580;47.078;15.446;2024-03-08T01:22:52;97681.34;;;22.78;32.29
84387;BME280;74580;47.078;15.446;2024-03-08T01:25:17;97670.44;;;22.78;32.58
84387;BME280;74580;47.078;15.446;2024-03-08T01:27:42;97676.69;;;22.79;32.63
84387;BME280;74580;47.078;15.446;2024-03-08T01:30:08;97678.63;;;22.78;32.45
84387;BME280;74580;47.078;15.446;2024-03-08T01:32:34;97673.19;;;22.78;32.75
84387;BME280;74580;47.078;15.446;2024-03-08T01:35:00;97670.81;;;22.77;32.41
84387;BME280;74580;47.078;15.446;2024-03-08T01:37:26;97669.25;;;22.76;32.32
84387;BME280;74580;47.078;15.446;2024-03-08T01:39:51;97673.97;;;22.79;32.48
84387;BME280;74580;47.078;15.446;2024-03-08T01:42:17;97667.72;;;22.78;32.77
84387;BME280;74580;47.078;15.446;2024-03-08T01:44:43;97661.88;;;22.76;32.41
84387;BME280;74580;47.078;15.446;2024-03-08T01:47:10;97666.16;;;22.77;32.83
84387;BME280;74580;47.078;15.446;2024-03-08T01:49:36;97659.91;;;22.77;32.53
84387;BME280;74580;47.078;15.446;2024-03-08T01:52:02;97663.09;;;22.79;32.42
84387;BME280;74580;47.078;15.446;2024-03-08T01:54:28;97662.63;;;22.77;32.60
84387;BME280;74580;47.078;15.446;2024-03-08T01:56:56;97663.78;;;22.76;32.67
84387;BME280;74580;47.078;15.446;2024-03-08T01:59:25;97663.09;;;22.79;32.61
84387;BME280;74580;47.078;15.446;2024-03-08T02:01:55;97662.28;;;22.78;32.81
84387;BME280;74580;47.078;15.446;2024-03-08T02:04:21;97660.28;;;22.75;32.43
84387;BME280;74580;47.078;15.446;2024-03-08T02:06:49;97658.34;;;22.76;32.52
84387;BME280;74580;47.078;15.446;2024-03-08T02:09:15;97664.50;;;22.73;32.52
84387;BME280;74580;47.078;15.446;2024-03-08T02:11:42;97663.78;;;22.76;32.41
84387;BME280;74580;47.078;15.446;2024-03-08T02:14:08;97665.38;;;22.77;32.51
84387;BME280;74580;47.078;15.446;2024-03-08T02:16:34;97660.72;;;22.77;32.40
84387;BME280;74580;47.078;15.446;2024-03-08T02:19:00;97669.25;;;22.76;32.42
84387;BME280;74580;47.078;15.446;2024-03-08T02:21:25;97660.72;;;22.77;32.45
84387;BME280;74580;47.078;15.446;2024-03-08T02:23:51;97659.16;;;22.76;32.17
84387;BME280;74580;47.078;15.446;2024-03-08T02:26:20;97658.34;;;22.76;32.43
84387;BME280;74580;47.078;15.446;2024-03-08T02:28:46;97664.59;;;22.76;32.32
84387;BME280;74580;47.078;15.446;2024-03-08T02:31:12;97661.06;;;22.76;32.52
84387;BME280;74580;47.078;15.446;2024-03-08T02:33:37;97665.72;;;22.75;32.72
84387;BME280;74580;47.078;15.446;2024-03-08T02:36:02;97661.06;;;22.76;32.61
84387;BME280;74580;47.078;15.446;2024-03-08T02:38:29;97657.53;;;22.75;32.36
84387;BME280;74580;47.078;15.446;2024-03-08T02:40:54;97661.78;;;22.73;32.44
84387;BME280;74580;47.078;15.446;2024-03-08T02:43:21;97659.50;;;22.75;32.58
84387;BME280;74580;47.078;15.446;2024-03-08T02:45:50;97656.78;;;22.75;32.56
84387;BME280;74580;47.078;15.446;2024-03-08T02:48:15;97653.25;;;22.74;32.29
84387;BME280;74580;47.078;15.446;2024-03-08T02:50:41;97655.97;;;22.74;32.42
84387;BME280;74580;47.078;15.446;2024-03-08T02:53:10;97656.41;;;22.76;32.29
84387;BME280;74580;47.078;15.446;2024-03-08T02:55:37;97651.31;;;22.75;32.58
84387;BME280;74580;47.078;15.446;2024-03-08T02:58:03;97655.97;;;22.74;32.52
84387;BME280;74580;47.078;15.446;2024-03-08T03:00:29;97655.63;;;22.76;32.40
84387;BME280;74580;47.078;15.446;2024-03-08T03:02:56;97656.78;;;22.75;32.43
84387;BME280;74580;47.078;15.446;2024-03-08T03:05:23;97660.28;;;22.75;32.24
84387;BME280;74580;47.078;15.446;2024-03-08T03:07:49;97648.97;;;22.73;32.31
84387;BME280;74580;47.078;15.446;2024-03-08T03:10:16;97655.19;;;22.74;32.48
84387;BME280;74580;47.078;15.446;2024-03-08T03:12:42;97650.13;;;22.72;32.45
84387;BME280;74580;47.078;15.446;2024-03-08T03:15:08;97648.97;;;22.73;32.49
84387;BME280;74580;47.078;15.446;2024-03-08T03:17:33;97646.66;;;22.75;32.41
84387;BME280;74580;47.078;15.446;2024-03-08T03:19:59;97647.81;;;22.74;32.36
84387;BME280;74580;47.078;15.446;2024-03-08T03:22:27;97647.00;;;22.74;32.54
84387;BME280;74580;47.078;15.446;2024-03-08T03:24:55;97647.81;;;22.74;32.35
84387;BME280;74580;47.078;15.446;2024-03-08T03:27:23;97640.00;;;22.73;32.42
84387;BME280;74580;47.078;15.446;2024-03-08T03:29:50;97639.56;;;22.71;32.44
84387;BME280;74580;47.078;15.446;2024-03-08T03:32:17;97647.41;;;22.72;32.37
84387;BME280;74580;47.078;15.446;2024-03-08T03:34:43;97648.16;;;22.73;32.54
84387;BME280;74580;47.078;15.446;2024-03-08T03:37:09;97651.25;;;22.71;32.54
84387;BME280;74580;47.078;15.446;2024-03-08T03:39:38;97646.59;;;22.72;32.44
84387;BME280;74580;47.078;15.446;2024-03-08T03:42:16;97645.03;;;22.71;32.45
84387;BME280;74580;47.078;15.446;2024-03-08T03:44:44;97647.41;;;22.72;32.56
84387;BME280;74580;47.078;15.446;2024-03-08T03:47:10;97645.03;;;22.71;32.36
84387;BME280;74580;47.078;15.446;2024-03-08T03:49:35;97648.53;;;22.71;32.35
84387;BME280;74580;47.078;15.446;2024-03-08T03:52:01;97643.88;;;22.72;32.64
84387;BME280;74580;47.078;15.446;2024-03-08T03:54:26;97643.88;;;22.72;32.19
84387;BME280;74580;47.078;15.446;2024-03-08T03:56:51;97647.75;;;22.71;32.45
84387;BME280;74580;47.078;15.446;2024-03-08T03:59:18;97648.53;;;22.71;32.58
84387;BME280;74580;47.078;15.446;2024-03-08T04:01:44;97645.03;;;22.71;32.56
84387;BME280;74580;47.078;15.446;2024-03-08T04:04:09;97644.22;;;22.70;32.45
84387;BME280;74580;47.078;15.446;2024-03-08T04:06:35;97649.31;;;22.72;32.56
84387;BME280;74580;47.078;15.446;2024-03-08T04:09:00;97645.03;;;22.71;32.47
84387;BME280;74580;47.078;15.446;2024-03-08T04:11:26;97653.56;;;22.69;32.39
84387;BME280;74580;47.078;15.446;2024-03-08T04:13:51;97640.69;;;22.70;32.58
84387;BME280;74580;47.078;15.446;2024-03-08T04:16:17;97657.03;;;22.70;32.52
84387;BME280;74580;47.078;15.446;2024-03-08T04:18:44;97650.47;;;22.71;32.58
84387;BME280;74580;47.078;15.446;2024-03-08T04:21:09;97645.03;;;22.71;32.50
84387;BME280;74580;47.078;15.446;2024-03-08T04:23:35;97645.38;;;22.69;32.44
84387;BME280;74580;47.078;15.446;2024-03-08T04:26:04;97648.09;;;22.69;32.55
84387;BME280;74580;47.078;15.446;2024-03-08T04:28:31;97646.94;;;22.70;32.56
84387;BME280;74580;47.078;15.446;2024-03-08T04:30:57;97646.16;;;22.70;32.66
84387;BME280;74580;47.078;15.446;2024-03-08T04:33:22;97646.94;;;22.70;32.45
84387;BME280;74580;47.078;15.446;2024-03-08T04:35:48;97653.19;;;22.71;32.30
84387;BME280;74580;47.078;15.446;2024-03-08T04:38:14;97655.47;;;22.69;32.33
84387;BME280;74580;47.078;15.446;2024-03-08T04:40:40;97657.03;;;22.70;32.40
84387;BME280;74580;47.078;15.446;2024-03-08T04:43:06;97655.13;;;22.70;32.47
84387;BME280;74580;47.078;15.446;2024-03-08T04:45:33;97652.41;;;22.70;32.47
84387;BME280;74580;47.078;15.446;2024-03-08T04:47:58;97653.56;;;22.69;32.44
84387;BME280;74580;47.078;15.446;2024-03-08T04:50:24;97659.00;;;22.69;32.74
84387;BME280;74580;47.078;15.446;2024-03-08T04:52:49;97655.47;;;22.69;32.52
84387;BME280;74580;47.078;15.446;2024-03-08T04:55:15;97650.03;;;22.69;32.54
84387;BME280;74580;47.078;15.446;2024-03-08T04:57:40;97648.09;;;22.69;32.39
84387;BME280;74580;47.078;15.446;2024-03-08T05:00:07;97646.16;;;22.70;32.65
84387;BME280;74580;47.078;15.446;2024-03-08T05:02:39;97643.00;;;22.68;32.31
84387;BME280;74580;47.078;15.446;2024-03-08T05:05:10;97643.00;;;22.68;32.73
84387;BME280;74580;47.078;15.446;2024-03-08T05:07:39;97648.09;;;22.69;32.49
84387;BME280;74580;47.078;15.446;2024-03-08T05:10:06;97645.72;;;22.68;32.51
84387;BME280;74580;47.078;15.446;2024-03-08T05:12:32;97648.09;;;22.69;32.62
84387;BME280;74580;47.078;15.446;2024-03-08T05:14:57;97647.66;;;22.67;32.58
84387;BME280;74580;47.078;15.446;2024-03-08T05:17:22;97642.56;;;22.66;32.63
84387;BME280;74580;47.078;15.446;2024-03-08T05:19:49;97650.38;;;22.67;32.49
84387;BME280;74580;47.078;15.446;2024-03-08T05:22:14;97657.44;;;22.68;32.67
84387;BME280;74580;47.078;15.446;2024-03-08T05:24:40;97657.78;;;22.67;32.27
84387;BME280;74580;47.078;15.446;2024-03-08T05:27:05;97656.63;;;22.68;32.52
84387;BME280;74580;47.078;15.446;2024-03-08T05:29:31;97660.50;;;22.67;32.52
84387;BME280;74580;47.078;15.446;2024-03-08T05:31:56;97658.91;;;22.66;32.39
84387;BME280;74580;47.078;15.446;2024-03-08T05:34:23;97657.78;;;22.67;32.38
84387;BME280;74580;47.078;15.446;2024-03-08T05:36:48;97660.50;;;22.67;32.42
84387;BME280;74580;47.078;15.446;2024-03-08T05:39:19;97663.22;;;22.67;32.42
84387;BME280;74580;47.078;15.446;2024-03-08T05:41:45;97658.91;;;22.66;32.39
84387;BME280;74580;47.078;15.446;2024-03-08T05:44:11;97662.44;;;22.66;32.55
84387;BME280;74580;47.078;15.446;2024-03-08T05:46:37;97664.34;;;22.66;32.41
84387;BME280;74580;47.078;15.446;2024-03-08T05:49:06;97667.06;;;22.66;32.48
84387;BME280;74580;47.078;15.446;2024-03-08T05:51:32;97662.44;;;22.66;32.49
84387;BME280;74580;47.078;15.446;2024-03-08T05:54:06;97664.34;;;22.66;32.62
84387;BME280;74580;47.078;15.446;2024-03-08T05:56:32;97665.94;;;22.67;32.29
84387;BME280;74580;47.078;15.446;2024-03-08T05:58:58;97661.06;;;22.57;32.70
84387;BME280;74580;47.078;15.446;2024-03-08T06:01:24;97666.34;;;22.50;32.30
84387;BME280;74580;47.078;15.446;2024-03-08T06:03:50;97669.03;;;22.46;31.99
84387;BME280;74580;47.078;15.446;2024-03-08T06:06:15;97661.91;;;22.42;31.55
84387;BME280;74580;47.078;15.446;2024-03-08T06:08:43;97662.63;;;22.39;31.47
84387;BME280;74580;47.078;15.446;2024-03-08T06:11:09;97670.34;;;22.37;31.36
84387;BME280;74580;47.078;15.446;2024-03-08T06:13:35;97671.84;;;22.34;31.05
84387;BME280;74580;47.078;15.446;2024-03-08T06:16:01;97670.97;;;22.30;31.16
84387;BME280;74580;47.078;15.446;2024-03-08T06:18:32;97669.06;;;22.31;30.88
84387;BME280;74580;47.078;15.446;2024-03-08T06:20:57;97677.94;;;22.28;30.56
84387;BME280;74580;47.078;15.446;2024-03-08T06:23:23;97673.63;;;22.27;30.66
84387;BME280;74580;47.078;15.446;2024-03-08T06:25:48;97670.56;;;22.28;30.28
84387;BME280;74580;47.078;15.446;2024-03-08T06:28:14;97670.13;;;22.26;30.33
84387;BME280;74580;47.078;15.446;2024-03-08T06:30:40;97666.59;;;21.91;29.69
84387;BME280;74580;47.078;15.446;2024-03-08T06:33:05;97673.00;;;21.37;30.08
84387;BME280;74580;47.078;15.446;2024-03-08T06:35:32;97675.47;;;21.73;30.13
84387;BME280;74580;47.078;15.446;2024-03-08T06:37:58;97674.75;;;22.07;30.63
84387;BME280;74580;47.078;15.446;2024-03-08T06:40:23;97677.06;;;22.24;30.19
84387;BME280;74580;47.078;15.446;2024-03-08T06:42:49;97688.09;;;22.31;30.54
84387;BME280;74580;47.078;15.446;2024-03-08T06:45:17;97687.81;;;22.36;30.66
84387;BME280;74580;47.078;15.446;2024-03-08T06:47:46;97689.50;;;22.40;30.70
84387;BME280;74580;47.078;15.446;2024-03-08T06:50:11;97686.84;;;22.44;30.66
84387;BME280;74580;47.078;15.446;2024-03-08T06:52:37;97685.34;;;22.46;30.88
84387;BME280;74580;47.078;15.446;2024-03-08T06:55:04;97687.38;;;22.49;31.11
84387;BME280;74580;47.078;15.446;2024-03-08T06:57:31;97687.03;;;22.51;30.92
84387;BME280;74580;47.078;15.446;2024-03-08T06:59:56;97685.50;;;22.53;31.09
84387;BME280;74580;47.078;15.446;2024-03-08T07:02:22;97680.47;;;22.55;31.06
84387;BME280;74580;47.078;15.446;2024-03-08T07:04:50;97686.78;;;22.59;31.11
84387;BME280;74580;47.078;15.446;2024-03-08T07:07:15;97683.28;;;22.59;31.16
84387;BME280;74580;47.078;15.446;2024-03-08T07:09:44;97688.00;;;22.62;31.08
84387;BME280;74580;47.078;15.446;2024-03-08T07:12:10;97687.66;;;22.63;31.46
84387;BME280;74580;47.078;15.446;2024-03-08T07:14:36;97687.66;;;22.63;31.40
84387;BME280;74580;47.078;15.446;2024-03-08T07:17:06;97686.13;;;22.66;31.53
84387;BME280;74580;47.078;15.446;2024-03-08T07:19:33;97681.84;;;22.65;31.76
84387;BME280;74580;47.078;15.446;2024-03-08T07:21:58;97682.28;;;22.67;31.57
84387;BME280;74580;47.078;15.446;2024-03-08T07:24:24;97687.75;;;22.67;31.83
84387;BME280;74580;47.078;15.446;2024-03-08T07:27:15;97683.88;;;22.68;31.65
84387;BME280;74580;47.078;15.446;2024-03-08T07:29:41;97681.94;;;22.68;31.72
84387;BME280;74580;47.078;15.446;2024-03-08T07:32:06;97684.72;;;22.72;31.83
84387;BME280;74580;47.078;15.446;2024-03-08T07:34:48;97686.22;;;22.69;31.83
84387;BME280;74580;47.078;15.446;2024-03-08T07:37:16;97678.84;;;22.70;31.88
84387;BME280;74580;47.078;15.446;2024-03-08T07:39:41;97682.81;;;22.72;32.21
84387;BME280;74580;47.078;15.446;2024-03-08T07:42:07;97682.81;;;22.72;32.09
84387;BME280;74580;47.078;15.446;2024-03-08T07:44:32;97685.13;;;22.74;32.29
84387;BME280;74580;47.078;15.446;2024-03-08T07:46:59;97681.66;;;22.73;32.06
84387;BME280;74580;47.078;15.446;2024-03-08T07:49:24;97688.66;;;22.74;32.05
84387;BME280;74580;47.078;15.446;2024-03-08T07:51:50;97688.66;;;22.74;32.01
84387;BME280;74580;47.078;15.446;2024-03-08T07:54:15;97695.69;;;22.75;32.14
84387;BME280;74580;47.078;15.446;2024-03-08T07:56:40;97696.91;;;22.78;32.20
84387;BME280;74580;47.078;15.446;2024-03-08T07:59:07;97701.22;;;22.79;32.09
84387;BME280;74580;47.078;15.446;2024-03-08T08:01:33;97694.97;;;22.78;32.33
84387;BME280;74580;47.078;15.446;2024-03-08T08:04:01;97695.78;;;22.79;32.06
84387;BME280;74580;47.078;15.446;2024-03-08T08:06:27;97695.78;;;22.79;32.17
84387;BME280;74580;47.078;15.446;2024-03-08T08:08:53;97706.66;;;22.79;32.02
84387;BME280;74580;47.078;15.446;2024-03-08T08:11:19;97704.72;;;22.79;32.22
84387;BME280;74580;47.078;15.446;2024-03-08T08:13:45;97709.38;;;22.79;32.28
84387;BME280;74580;47.078;15.446;2024-03-08T08:16:10;97709.38;;;22.79;32.34
84387;BME280;74580;47.078;15.446;2024-03-08T08:18:36;97710.16;;;22.79;32.17
84387;BME280;74580;47.078;15.446;2024-03-08T08:21:10;97706.66;;;22.79;32.23
84387;BME280;74580;47.078;15.446;2024-03-08T08:23:36;97704.34;;;22.81;32.18
84387;BME280;74580;47.078;15.446;2024-03-08T08:26:01;97709.81;;;22.81;32.17
84387;BME280;74580;47.078;15.446;2024-03-08T08:28:29;97706.31;;;22.80;32.22
84387;BME280;74580;47.078;15.446;2024-03-08T08:30:56;97705.16;;;22.81;32.18
84387;BME280;74580;47.078;15.446;2024-03-08T08:33:21;97705.94;;;22.82;32.39
84387;BME280;74580;47.078;15.446;2024-03-08T08:35:47;97705.94;;;22.82;32.04
84387;BME280;74580;47.078;15.446;2024-03-08T08:38:13;97705.16;;;22.81;32.20
84387;BME280;74580;47.078;15.446;2024-03-08T08:40:38;97704.81;;;22.83;32.19
84387;BME280;74580;47.078;15.446;2024-03-08T08:43:03;97700.47;;;22.82;31.90
84387;BME280;74580;47.078;15.446;2024-03-08T08:45:32;97701.28;;;22.82;32.26
84387;BME280;74580;47.078;15.446;2024-03-08T08:47:58;97702.94;;;22.87;32.43
84387;BME280;74580;47.078;15.446;2024-03-08T08:50:27;97709.94;;;22.88;32.76
84387;BME280;74580;47.078;15.446;2024-03-08T08:52:54;97702.78;;;22.99;32.52
84387;BME280;74580;47.078;15.446;2024-03-08T08:55:20;97706.28;;;22.99;32.66
84387;BME280;74580;47.078;15.446;2024-03-08T08:57:52;97703.56;;;22.99;32.67
84387;BME280;74580;47.078;15.446;2024-03-08T09:00:18;97698.09;;;22.99;32.67
84387;BME280;74580;47.078;15.446;2024-03-08T09:02:45;97698.91;;;23.00;32.93
84387;BME280;74580;47.078;15.446;2024-03-08T09:05:14;97701.28;;;23.01;32.78
84387;BME280;74580;47.078;15.446;2024-03-08T09:07:43;97705.56;;;23.02;32.45
84387;BME280;74580;47.078;15.446;2024-03-08T09:10:10;97696.59;;;23.02;32.85
84387;BME280;74580;47.078;15.446;2024-03-08T09:12:37;97692.75;;;23.03;32.80
84387;BME280;74580;47.078;15.446;2024-03-08T09:15:03;97696.22;;;23.03;32.98
84387;BME280;74580;47.078;15.446;2024-03-08T09:17:29;97696.22;;;23.03;32.58
84387;BME280;74580;47.078;15.446;2024-03-08T09:19:55;97697.03;;;23.04;32.73
84387;BME280;74580;47.078;15.446;2024-03-08T09:22:20;97695.88;;;23.05;32.76
84387;BME280;74580;47.078;15.446;2024-03-08T09:24:46;97697.84;;;23.04;32.88
84387;BME280;74580;47.078;15.446;2024-03-08T09:27:11;97695.53;;;23.06;32.99
84387;BME280;74580;47.078;15.446;2024-03-08T09:29:37;97683.81;;;23.06;33.21
84387;BME280;74580;47.078;15.446;2024-03-08T09:32:02;97686.53;;;23.06;33.15
84387;BME280;74580;47.078;15.446;2024-03-08T09:34:28;97689.28;;;23.06;33.21
84387;BME280;74580;47.078;15.446;2024-03-08T09:36:53;97683.47;;;23.07;32.73
84387;BME280;74580;47.078;15.446;2024-03-08T09:39:19;97682.69;;;23.07;33.09
84387;BME280;74580;47.078;15.446;2024-03-08T09:41:46;97680.75;;;23.07;33.33
84387;BME280;74580;47.078;15.446;2024-03-08T09:44:17;97679.97;;;23.07;32.89
84387;BME280;74580;47.078;15.446;2024-03-08T09:46:45;97678.81;;;23.08;33.12
84387;BME280;74580;47.078;15.446;2024-03-08T09:49:12;97677.25;;;23.07;33.03
84387;BME280;74580;47.078;15.446;2024-03-08T09:51:38;97672.56;;;23.07;33.18
84387;BME280;74580;47.078;15.446;2024-03-08T09:54:05;97674.94;;;23.09;33.09
84387;BME280;74580;47.078;15.446;2024-03-08T09:56:38;97674.94;;;23.09;33.34
84387;BME280;74580;47.078;15.446;2024-03-08T09:59:06;97678.09;;;23.11;33.14
84387;BME280;74580;47.078;15.446;2024-03-08T10:01:51;97676.13;;;23.11;33.13
84387;BME280;74580;47.078;15.446;2024-03-08T10:04:22;97678.50;;;23.13;33.08
84387;BME280;74580;47.078;15.446;2024-03-08T10:06:47;97681.22;;;23.13;33.01
84387;BME280;74580;47.078;15.446;2024-03-08T10:09:13;97674.63;;;23.14;33.25
84387;BME280;74580;47.078;15.446;2024-03-08T10:11:39;97681.69;;;23.15;33.24
84387;BME280;74580;47.078;15.446;2024-03-08T10:14:05;97677.34;;;23.14;33.03
84387;BME280;74580;47.078;15.446;2024-03-08T10:16:31;97681.28;;;23.16;33.21
84387;BME280;74580;47.078;15.446;2024-03-08T10:18:57;97683.25;;;23.16;33.12
84387;BME280;74580;47.078;15.446;2024-03-08T10:21:22;97684.81;;;23.17;33.44
84387;BME280;74580;47.078;15.446;2024-03-08T10:23:48;97681.72;;;23.18;33.30
84387;BME280;74580;47.078;15.446;2024-03-08T10:26:17;97686.38;;;23.18;33.12
84387;BME280;74580;47.078;15.446;2024-03-08T10:28:47;97683.28;;;23.19;33.19
84387;BME280;74580;47.078;15.446;2024-03-08T10:31:15;97685.69;;;23.21;33.22
84387;BME280;74580;47.078;15.446;2024-03-08T10:33:41;97685.69;;;23.21;33.26
84387;BME280;74580;47.078;15.446;2024-03-08T10:36:10;97679.81;;;23.19;33.12
84387;BME280;74580;47.078;15.446;2024-03-08T10:38:37;97687.25;;;23.22;33.24
84387;BME280;74580;47.078;15.446;2024-03-08T10:41:07;97676.72;;;23.20;33.28
84387;BME280;74580;47.078;15.446;2024-03-08T10:49:19;97678.69;;;23.20;32.91
84387;BME280;74580;47.078;15.446;2024-03-08T10:51:49;97668.53;;;23.20;32.84
84387;BME280;74580;47.078;15.446;2024-03-08T10:54:17;97677.53;;;23.21;32.97
84387;BME280;74580;47.078;15.446;2024-03-08T10:56:44;97674.44;;;23.22;33.18
84387;BME280;74580;47.078;15.446;2024-03-08T10:59:10;97664.34;;;23.23;32.98
84387;BME280;74580;47.078;15.446;2024-03-08T11:01:36;97663.94;;;23.24;33.09
84387;BME280;74580;47.078;15.446;2024-03-08T11:04:04;97670.63;;;23.27;33.18
84387;BME280;74580;47.078;15.446;2024-03-08T11:06:51;97665.53;;;23.25;32.88
84387;BME280;74580;47.078;15.446;2024-03-08T11:09:51;97666.31;;;23.26;33.18
84387;BME280;74580;47.078;15.446;2024-03-08T11:12:27;97653.47;;;23.26;33.13
84387;BME280;74580;47.078;15.446;2024-03-08T11:15:01;97649.19;;;23.25;33.37
84387;BME280;74580;47.078;15.446;2024-03-08T11:19:58;97643.72;;;23.25;33.55
84387;BME280;74580;47.078;15.446;2024-03-08T11:22:28;97646.47;;;23.25;33.24
84387;BME280;74580;47.078;15.446;2024-03-08T11:25:04;97643.72;;;23.25;33.36
84387;BME280;74580;47.078;15.446;2024-03-08T11:27:35;97638.69;;;23.27;33.40
84387;BME280;74580;47.078;15.446;2024-03-08T11:30:06;97637.13;;;23.26;33.28
84387;BME280;74580;47.078;15.446;2024-03-08T11:32:36;97637.13;;;23.26;33.74
84387;BME280;74580;47.078;15.446;2024-03-08T11:35:06;97629.75;;;23.27;33.84
84387;BME280;74580;47.078;15.446;2024-03-08T11:37:33;97635.97;;;23.27;33.38
84387;BME280;74580;47.078;15.446;2024-03-08T11:40:02;97636.81;;;23.31;33.41
84387;BME280;74580;47.078;15.446;2024-03-08T11:42:37;97629.00;;;23.30;33.63
84387;BME280;74580;47.078;15.446;2024-03-08T11:45:08;97621.63;;;23.30;33.32
84387;BME280;74580;47.078;15.446;2024-03-08T11:47:34;97615.81;;;23.32;33.49
84387;BME280;74580;47.078;15.446;2024-03-08T11:50:00;97610.75;;;23.34;33.59
84387;BME280;74580;47.078;15.446;2024-03-08T11:52:28;97606.94;;;23.38;33.41
84387;BME280;74580;47.078;15.446;2024-03-08T11:54:54;97605.88;;;23.43;33.30
84387;BME280;74580;47.078;15.446;2024-03-08T11:57:23;97596.94;;;23.46;33.07
84387;BME280;74580;47.078;15.446;2024-03-08T11:59:52;97600.94;;;23.52;33.27
84387;BME280;74580;47.078;15.446;2024-03-08T12:02:18;97593.47;;;23.49;33.42
84387;BME280;74580;47.078;15.446;2024-03-08T12:04:45;97590.28;;;23.43;33.04
84387;BME280;74580;47.078;15.446;2024-03-08T12:07:11;97601.50;;;23.38;32.29
84387;BME280;74580;47.078;15.446;2024-03-08T12:09:40;97590.94;;;23.37;32.41
84387;BME280;74580;47.078;15.446;2024-03-08T12:12:06;97591.28;;;23.32;31.88
84387;BME280;74580;47.078;15.446;2024-03-08T12:14:33;97585.34;;;23.26;31.89
84387;BME280;74580;47.078;15.446;2024-03-08T12:16:59;97584.84;;;23.21;31.75
84387;BME280;74580;47.078;15.446;2024-03-08T12:19:27;97588.25;;;23.18;31.60
84387;BME280;74580;47.078;15.446;2024-03-08T12:21:54;97579.69;;;23.16;31.14
84387;BME280;74580;47.078;15.446;2024-03-08T12:24:19;97573.78;;;23.14;30.69
84387;BME280;74580;47.078;15.446;2024-03-08T12:26:46;97577.31;;;23.14;31.04
84387;BME280;74580;47.078;15.446;2024-03-08T12:29:27;97577.25;;;23.11;30.41
84387;BME280;74580;47.078;15.446;2024-03-08T12:31:57;97573.69;;;23.07;30.50
84387;BME280;74580;47.078;15.446;2024-03-08T12:34:27;97571.69;;;23.04;30.57
84387;BME280;74580;47.078;15.446;2024-03-08T12:36:54;97575.94;;;23.01;30.35
84387;BME280;74580;47.078;15.446;2024-03-08T12:39:21;97565.75;;;22.98;30.29
84387;BME280;74580;47.078;15.446;2024-03-08T12:41:55;97567.66;;;22.98;30.11
84387;BME280;74580;47.078;15.446;2024-03-08T12:44:24;97566.09;;;22.97;29.90
84387;BME280;74580;47.078;15.446;2024-03-08T12:46:51;97556.72;;;22.94;30.08
84387;BME280;74580;47.078;15.446;2024-03-08T12:49:16;97560.59;;;22.93;29.75
84387;BME280;74580;47.078;15.446;2024-03-08T12:51:47;97553.59;;;22.92;29.57
84387;BME280;74580;47.078;15.446;2024-03-08T12:54:13;97555.06;;;22.90;29.73
84387;BME280;74580;47.078;15.446;2024-03-08T12:56:38;97549.22;;;22.88;28.88
84387;BME280;74580;47.078;15.446;2024-03-08T12:59:05;97548.78;;;22.86;29.14